sensor_id;sensor_type;location;lat;lon;timestamp;P1;durP1;ratioP1;P2;durP2;ratioP2
17566;SDS011;8901;52.088;5.084;2023-08-30T00:01:16;10.37;;;9.43;;
17566;SDS011;8901;52.088;5.084;2023-08-30T00:03:44;9.60;;;8.87;;
17566;SDS011;8901;52.088;5.084;2023-08-30T00:06:11;9.37;;;8.60;;
17566;SDS011;8901;52.088;5.084;2023-08-30T00:08:38;9.87;;;8.77;;
17566;SDS011;8901;52.088;5.084;2023-08-30T00:11:05;8.37;;;7.77;;
17566;SDS011;8901;52.088;5.084;2023-08-30T00:13:34;10.07;;;9.17;;
17566;SDS011;8901;52.088;5.084;2023-08-30T00:16:01;10.33;;;8.50;;
17566;SDS011;8901;52.088;5.084;2023-08-30T00:18:28;9.37;;;8.57;;
17566;SDS011;8901;52.088;5.084;2023-08-30T00:20:56;10.80;;;9.87;;
17566;SDS011;8901;52.088;5.084;2023-08-30T00:23:23;9.60;;;8.83;;
17566;SDS011;8901;52.088;5.084;2023-08-30T00:25:50;9.43;;;8.67;;
17566;SDS011;8901;52.088;5.084;2023-08-30T00:28:18;11.40;;;10.50;;
17566;SDS011;8901;52.088;5.084;2023-08-30T00:30:46;11.10;;;10.13;;
17566;SDS011;8901;52.088;5.084;2023-08-30T00:33:13;10.77;;;9.97;;
17566;SDS011;8901;52.088;5.084;2023-08-30T00:35:41;10.53;;;9.63;;
17566;SDS011;8901;52.088;5.084;2023-08-30T00:38:08;10.37;;;9.47;;
17566;SDS011;8901;52.088;5.084;2023-08-30T00:40:38;9.70;;;9.00;;
17566;SDS011;8901;52.088;5.084;2023-08-30T00:43:06;10.07;;;9.37;;
17566;SDS011;8901;52.088;5.084;2023-08-30T00:45:33;10.73;;;9.77;;
17566;SDS011;8901;52.088;5.084;2023-08-30T00:48:04;10.27;;;9.50;;
17566;SDS011;8901;52.088;5.084;2023-08-30T00:50:32;10.23;;;9.43;;
17566;SDS011;8901;52.088;5.084;2023-08-30T00:52:59;11.27;;;10.37;;
17566;SDS011;8901;52.088;5.084;2023-08-30T00:55:30;9.93;;;9.13;;
17566;SDS011;8901;52.088;5.084;2023-08-30T00:57:58;11.10;;;10.20;;
17566;SDS011;8901;52.088;5.084;2023-08-30T01:00:25;11.50;;;10.50;;
17566;SDS011;8901;52.088;5.084;2023-08-30T01:02:53;10.63;;;9.77;;
17566;SDS011;8901;52.088;5.084;2023-08-30T01:05:22;10.73;;;9.83;;
17566;SDS011;8901;52.088;5.084;2023-08-30T01:07:49;9.97;;;9.17;;
17566;SDS011;8901;52.088;5.084;2023-08-30T01:10:17;10.13;;;9.27;;
17566;SDS011;8901;52.088;5.084;2023-08-30T01:12:47;11.47;;;10.57;;
17566;SDS011;8901;52.088;5.084;2023-08-30T01:15:15;10.47;;;9.37;;
17566;SDS011;8901;52.088;5.084;2023-08-30T01:17:44;10.60;;;9.80;;
17566;SDS011;8901;52.088;5.084;2023-08-30T01:20:14;11.20;;;10.13;;
17566;SDS011;8901;52.088;5.084;2023-08-30T01:22:47;10.73;;;9.90;;
17566;SDS011;8901;52.088;5.084;2023-08-30T01:25:23;9.97;;;9.07;;
17566;SDS011;8901;52.088;5.084;2023-08-30T01:27:52;10.87;;;9.87;;
17566;SDS011;8901;52.088;5.084;2023-08-30T01:30:21;11.03;;;10.17;;
17566;SDS011;8901;52.088;5.084;2023-08-30T01:32:51;10.37;;;9.47;;
17566;SDS011;8901;52.088;5.084;2023-08-30T01:35:19;10.23;;;9.30;;
17566;SDS011;8901;52.088;5.084;2023-08-30T01:37:47;10.57;;;9.77;;
17566;SDS011;8901;52.088;5.084;2023-08-30T01:40:15;11.03;;;10.13;;
17566;SDS011;8901;52.088;5.084;2023-08-30T01:42:43;10.93;;;9.93;;
17566;SDS011;8901;52.088;5.084;2023-08-30T01:45:13;10.67;;;9.77;;
17566;SDS011;8901;52.088;5.084;2023-08-30T01:47:41;8.80;;;8.00;;
17566;SDS011;8901;52.088;5.084;2023-08-30T01:50:08;11.10;;;10.17;;
17566;SDS011;8901;52.088;5.084;2023-08-30T01:52:36;11.93;;;10.93;;
17566;SDS011;8901;52.088;5.084;2023-08-30T01:55:03;10.07;;;9.17;;
17566;SDS011;8901;52.088;5.084;2023-08-30T01:57:31;9.67;;;8.87;;
17566;SDS011;8901;52.088;5.084;2023-08-30T01:59:58;11.20;;;10.10;;
17566;SDS011;8901;52.088;5.084;2023-08-30T02:02:29;11.13;;;10.00;;
17566;SDS011;8901;52.088;5.084;2023-08-30T02:04:57;9.83;;;9.07;;
17566;SDS011;8901;52.088;5.084;2023-08-30T02:07:25;10.03;;;9.17;;
17566;SDS011;8901;52.088;5.084;2023-08-30T02:09:54;11.77;;;10.77;;
17566;SDS011;8901;52.088;5.084;2023-08-30T02:12:24;10.60;;;9.70;;
17566;SDS011;8901;52.088;5.084;2023-08-30T02:14:52;10.77;;;9.87;;
17566;SDS011;8901;52.088;5.084;2023-08-30T02:17:20;10.10;;;9.30;;
17566;SDS011;8901;52.088;5.084;2023-08-30T02:19:48;9.87;;;9.07;;
17566;SDS011;8901;52.088;5.084;2023-08-30T02:22:18;10.97;;;10.07;;
17566;SDS011;8901;52.088;5.084;2023-08-30T02:24:45;11.93;;;10.87;;
17566;SDS011;8901;52.088;5.084;2023-08-30T02:27:12;10.47;;;9.63;;
17566;SDS011;8901;52.088;5.084;2023-08-30T02:29:40;10.67;;;9.87;;
17566;SDS011;8901;52.088;5.084;2023-08-30T02:32:07;13.13;;;11.93;;
17566;SDS011;8901;52.088;5.084;2023-08-30T02:34:34;13.13;;;12.07;;
17566;SDS011;8901;52.088;5.084;2023-08-30T02:37:03;13.50;;;12.40;;
17566;SDS011;8901;52.088;5.084;2023-08-30T02:39:30;12.97;;;11.87;;
17566;SDS011;8901;52.088;5.084;2023-08-30T02:41:58;11.73;;;10.53;;
17566;SDS011;8901;52.088;5.084;2023-08-30T02:44:25;12.93;;;11.83;;
17566;SDS011;8901;52.088;5.084;2023-08-30T02:46:52;13.30;;;12.03;;
17566;SDS011;8901;52.088;5.084;2023-08-30T02:49:19;12.37;;;11.27;;
17566;SDS011;8901;52.088;5.084;2023-08-30T02:51:46;11.80;;;10.73;;
17566;SDS011;8901;52.088;5.084;2023-08-30T02:54:15;11.43;;;10.33;;
17566;SDS011;8901;52.088;5.084;2023-08-30T02:56:42;12.23;;;11.33;;
17566;SDS011;8901;52.088;5.084;2023-08-30T02:59:09;12.70;;;11.60;;
17566;SDS011;8901;52.088;5.084;2023-08-30T03:01:37;12.27;;;11.20;;
17566;SDS011;8901;52.088;5.084;2023-08-30T03:04:04;11.87;;;10.73;;
17566;SDS011;8901;52.088;5.084;2023-08-30T03:06:32;10.37;;;9.47;;
17566;SDS011;8901;52.088;5.084;2023-08-30T03:08:59;12.83;;;11.77;;
17566;SDS011;8901;52.088;5.084;2023-08-30T03:11:28;11.90;;;10.90;;
17566;SDS011;8901;52.088;5.084;2023-08-30T03:13:55;12.40;;;11.40;;
17566;SDS011;8901;52.088;5.084;2023-08-30T03:16:22;13.50;;;12.37;;
17566;SDS011;8901;52.088;5.084;2023-08-30T03:18:49;13.27;;;12.27;;
17566;SDS011;8901;52.088;5.084;2023-08-30T03:21:17;12.63;;;11.63;;
17566;SDS011;8901;52.088;5.084;2023-08-30T03:23:44;13.10;;;12.10;;
17566;SDS011;8901;52.088;5.084;2023-08-30T03:26:11;13.03;;;11.83;;
17566;SDS011;8901;52.088;5.084;2023-08-30T03:28:40;13.87;;;12.67;;
17566;SDS011;8901;52.088;5.084;2023-08-30T03:31:11;13.63;;;12.53;;
17566;SDS011;8901;52.088;5.084;2023-08-30T03:33:38;13.70;;;12.53;;
17566;SDS011;8901;52.088;5.084;2023-08-30T03:36:06;12.73;;;11.60;;
17566;SDS011;8901;52.088;5.084;2023-08-30T03:38:35;14.97;;;13.53;;
17566;SDS011;8901;52.088;5.084;2023-08-30T03:41:02;12.23;;;11.13;;
17566;SDS011;8901;52.088;5.084;2023-08-30T03:43:29;13.17;;;11.97;;
17566;SDS011;8901;52.088;5.084;2023-08-30T03:45:59;14.00;;;12.87;;
17566;SDS011;8901;52.088;5.084;2023-08-30T03:48:26;13.13;;;12.03;;
17566;SDS011;8901;52.088;5.084;2023-08-30T03:50:53;14.17;;;13.07;;
17566;SDS011;8901;52.088;5.084;2023-08-30T03:53:21;13.97;;;12.57;;
17566;SDS011;8901;52.088;5.084;2023-08-30T03:55:48;14.23;;;12.67;;
17566;SDS011;8901;52.088;5.084;2023-08-30T03:58:15;13.33;;;12.23;;
17566;SDS011;8901;52.088;5.084;2023-08-30T04:00:42;13.23;;;11.93;;
17566;SDS011;8901;52.088;5.084;2023-08-30T04:03:12;10.73;;;9.83;;
17566;SDS011;8901;52.088;5.084;2023-08-30T04:05:40;11.70;;;10.70;;
17566;SDS011;8901;52.088;5.084;2023-08-30T04:08:07;11.50;;;10.60;;
17566;SDS011;8901;52.088;5.084;2023-08-30T04:10:35;13.60;;;12.40;;
17566;SDS011;8901;52.088;5.084;2023-08-30T04:13:02;15.40;;;14.00;;
17566;SDS011;8901;52.088;5.084;2023-08-30T04:15:32;14.20;;;13.00;;
17566;SDS011;8901;52.088;5.084;2023-08-30T04:18:00;14.50;;;13.10;;
17566;SDS011;8901;52.088;5.084;2023-08-30T04:20:28;14.80;;;13.50;;
17566;SDS011;8901;52.088;5.084;2023-08-30T04:22:55;12.57;;;11.57;;
17566;SDS011;8901;52.088;5.084;2023-08-30T04:25:23;13.27;;;12.07;;
17566;SDS011;8901;52.088;5.084;2023-08-30T04:27:51;12.13;;;11.13;;
17566;SDS011;8901;52.088;5.084;2023-08-30T04:30:18;13.17;;;12.03;;
17566;SDS011;8901;52.088;5.084;2023-08-30T04:32:45;11.17;;;10.27;;
17566;SDS011;8901;52.088;5.084;2023-08-30T04:35:12;12.87;;;11.60;;
17566;SDS011;8901;52.088;5.084;2023-08-30T04:37:41;11.73;;;10.53;;
17566;SDS011;8901;52.088;5.084;2023-08-30T04:40:08;12.10;;;11.10;;
17566;SDS011;8901;52.088;5.084;2023-08-30T04:42:36;11.03;;;10.13;;
17566;SDS011;8901;52.088;5.084;2023-08-30T04:45:04;11.80;;;10.80;;
17566;SDS011;8901;52.088;5.084;2023-08-30T04:47:32;13.43;;;12.30;;
17566;SDS011;8901;52.088;5.084;2023-08-30T04:49:59;12.40;;;11.40;;
17566;SDS011;8901;52.088;5.084;2023-08-30T04:52:26;13.47;;;12.40;;
17566;SDS011;8901;52.088;5.084;2023-08-30T04:54:55;12.13;;;10.93;;
17566;SDS011;8901;52.088;5.084;2023-08-30T04:57:23;11.87;;;10.77;;
17566;SDS011;8901;52.088;5.084;2023-08-30T04:59:50;11.30;;;10.30;;
17566;SDS011;8901;52.088;5.084;2023-08-30T05:02:17;11.17;;;9.97;;
17566;SDS011;8901;52.088;5.084;2023-08-30T05:04:44;10.73;;;9.93;;
17566;SDS011;8901;52.088;5.084;2023-08-30T05:07:11;10.90;;;10.00;;
17566;SDS011;8901;52.088;5.084;2023-08-30T05:09:39;11.30;;;10.30;;
17566;SDS011;8901;52.088;5.084;2023-08-30T05:12:08;12.37;;;11.37;;
17566;SDS011;8901;52.088;5.084;2023-08-30T05:14:35;13.27;;;11.97;;
17566;SDS011;8901;52.088;5.084;2023-08-30T05:17:02;12.00;;;10.90;;
17566;SDS011;8901;52.088;5.084;2023-08-30T05:19:30;13.30;;;12.10;;
17566;SDS011;8901;52.088;5.084;2023-08-30T05:21:57;11.47;;;10.33;;
17566;SDS011;8901;52.088;5.084;2023-08-30T05:24:24;11.83;;;10.83;;
17566;SDS011;8901;52.088;5.084;2023-08-30T05:26:53;12.87;;;11.50;;
17566;SDS011;8901;52.088;5.084;2023-08-30T05:29:21;11.77;;;10.77;;
17566;SDS011;8901;52.088;5.084;2023-08-30T05:31:49;12.33;;;11.27;;
17566;SDS011;8901;52.088;5.084;2023-08-30T05:34:16;11.23;;;9.90;;
17566;SDS011;8901;52.088;5.084;2023-08-30T05:36:43;12.13;;;10.93;;
17566;SDS011;8901;52.088;5.084;2023-08-30T05:39:10;11.30;;;10.30;;
17566;SDS011;8901;52.088;5.084;2023-08-30T05:41:37;12.67;;;9.93;;
17566;SDS011;8901;52.088;5.084;2023-08-30T05:44:05;12.27;;;10.53;;
17566;SDS011;8901;52.088;5.084;2023-08-30T05:46:34;11.40;;;10.23;;
17566;SDS011;8901;52.088;5.084;2023-08-30T05:49:01;11.43;;;10.10;;
17566;SDS011;8901;52.088;5.084;2023-08-30T05:51:28;11.97;;;10.77;;
17566;SDS011;8901;52.088;5.084;2023-08-30T05:53:55;10.87;;;9.87;;
17566;SDS011;8901;52.088;5.084;2023-08-30T05:56:22;11.13;;;10.13;;
17566;SDS011;8901;52.088;5.084;2023-08-30T05:58:50;13.33;;;10.73;;
17566;SDS011;8901;52.088;5.084;2023-08-30T06:01:17;11.80;;;10.60;;
17566;SDS011;8901;52.088;5.084;2023-08-30T06:03:46;10.87;;;9.73;;
17566;SDS011;8901;52.088;5.084;2023-08-30T06:06:14;9.93;;;8.93;;
17566;SDS011;8901;52.088;5.084;2023-08-30T06:08:41;11.27;;;9.30;;
17566;SDS011;8901;52.088;5.084;2023-08-30T06:11:09;10.83;;;9.67;;
17566;SDS011;8901;52.088;5.084;2023-08-30T06:13:36;13.83;;;8.97;;
17566;SDS011;8901;52.088;5.084;2023-08-30T06:16:03;11.80;;;9.60;;
17566;SDS011;8901;52.088;5.084;2023-08-30T06:18:30;10.07;;;8.87;;
17566;SDS011;8901;52.088;5.084;2023-08-30T06:20:59;12.27;;;9.27;;
17566;SDS011;8901;52.088;5.084;2023-08-30T06:23:26;10.30;;;8.90;;
17566;SDS011;8901;52.088;5.084;2023-08-30T06:25:54;13.90;;;9.13;;
17566;SDS011;8901;52.088;5.084;2023-08-30T06:28:21;10.90;;;9.40;;
17566;SDS011;8901;52.088;5.084;2023-08-30T06:30:48;10.07;;;9.17;;
17566;SDS011;8901;52.088;5.084;2023-08-30T06:33:15;10.07;;;9.00;;
17566;SDS011;8901;52.088;5.084;2023-08-30T06:35:43;11.67;;;10.00;;
17566;SDS011;8901;52.088;5.084;2023-08-30T06:38:11;10.23;;;7.87;;
17566;SDS011;8901;52.088;5.084;2023-08-30T06:40:42;9.37;;;8.47;;
17566;SDS011;8901;52.088;5.084;2023-08-30T06:43:09;10.27;;;9.07;;
17566;SDS011;8901;52.088;5.084;2023-08-30T06:45:37;12.47;;;8.30;;
17566;SDS011;8901;52.088;5.084;2023-08-30T06:48:04;12.13;;;9.80;;
17566;SDS011;8901;52.088;5.084;2023-08-30T06:50:32;8.70;;;7.87;;
17566;SDS011;8901;52.088;5.084;2023-08-30T06:52:59;10.57;;;9.30;;
17566;SDS011;8901;52.088;5.084;2023-08-30T06:55:28;10.20;;;9.20;;
17566;SDS011;8901;52.088;5.084;2023-08-30T06:57:55;10.57;;;8.50;;
17566;SDS011;8901;52.088;5.084;2023-08-30T07:00:22;8.33;;;7.53;;
17566;SDS011;8901;52.088;5.084;2023-08-30T07:02:49;9.33;;;8.43;;
17566;SDS011;8901;52.088;5.084;2023-08-30T07:05:16;8.93;;;8.13;;
17566;SDS011;8901;52.088;5.084;2023-08-30T07:07:44;9.60;;;8.60;;
17566;SDS011;8901;52.088;5.084;2023-08-30T07:10:11;8.67;;;7.83;;
17566;SDS011;8901;52.088;5.084;2023-08-30T07:12:39;11.90;;;8.77;;
17566;SDS011;8901;52.088;5.084;2023-08-30T07:15:07;8.17;;;7.47;;
17566;SDS011;8901;52.088;5.084;2023-08-30T07:17:34;9.03;;;8.23;;
17566;SDS011;8901;52.088;5.084;2023-08-30T07:20:02;9.10;;;8.30;;
17566;SDS011;8901;52.088;5.084;2023-08-30T07:22:30;10.03;;;9.00;;
17566;SDS011;8901;52.088;5.084;2023-08-30T07:24:58;9.30;;;8.50;;
17566;SDS011;8901;52.088;5.084;2023-08-30T07:27:25;9.77;;;8.87;;
17566;SDS011;8901;52.088;5.084;2023-08-30T07:29:55;10.10;;;8.57;;
17566;SDS011;8901;52.088;5.084;2023-08-30T07:32:22;9.00;;;7.90;;
17566;SDS011;8901;52.088;5.084;2023-08-30T07:34:49;8.90;;;8.10;;
17566;SDS011;8901;52.088;5.084;2023-08-30T07:37:17;8.43;;;7.73;;
17566;SDS011;8901;52.088;5.084;2023-08-30T07:39:45;8.90;;;8.03;;
17566;SDS011;8901;52.088;5.084;2023-08-30T07:42:12;7.53;;;6.90;;
17566;SDS011;8901;52.088;5.084;2023-08-30T07:44:40;7.70;;;7.00;;
17566;SDS011;8901;52.088;5.084;2023-08-30T07:47:08;6.97;;;6.37;;
17566;SDS011;8901;52.088;5.084;2023-08-30T07:49:35;7.80;;;7.20;;
17566;SDS011;8901;52.088;5.084;2023-08-30T07:52:03;7.83;;;7.13;;
17566;SDS011;8901;52.088;5.084;2023-08-30T07:54:30;8.20;;;6.73;;
17566;SDS011;8901;52.088;5.084;2023-08-30T07:56:57;7.17;;;6.57;;
17566;SDS011;8901;52.088;5.084;2023-08-30T07:59:25;7.60;;;6.90;;
17566;SDS011;8901;52.088;5.084;2023-08-30T08:01:52;6.50;;;6.00;;
17566;SDS011;8901;52.088;5.084;2023-08-30T08:04:20;6.93;;;6.23;;
17566;SDS011;8901;52.088;5.084;2023-08-30T08:06:48;7.40;;;6.80;;
17566;SDS011;8901;52.088;5.084;2023-08-30T08:09:15;6.87;;;6.27;;
17566;SDS011;8901;52.088;5.084;2023-08-30T08:11:42;7.20;;;6.50;;
17566;SDS011;8901;52.088;5.084;2023-08-30T08:14:09;6.40;;;5.80;;
17566;SDS011;8901;52.088;5.084;2023-08-30T08:16:37;6.67;;;6.07;;
17566;SDS011;8901;52.088;5.084;2023-08-30T08:19:04;7.37;;;6.67;;
17566;SDS011;8901;52.088;5.084;2023-08-30T08:21:33;8.37;;;5.80;;
17566;SDS011;8901;52.088;5.084;2023-08-30T08:24:01;6.63;;;6.03;;
17566;SDS011;8901;52.088;5.084;2023-08-30T08:26:28;6.80;;;6.20;;
17566;SDS011;8901;52.088;5.084;2023-08-30T08:28:55;6.67;;;6.03;;
17566;SDS011;8901;52.088;5.084;2023-08-30T08:31:23;6.30;;;5.70;;
17566;SDS011;8901;52.088;5.084;2023-08-30T08:33:50;7.70;;;6.90;;
17566;SDS011;8901;52.088;5.084;2023-08-30T08:36:18;8.63;;;5.93;;
17566;SDS011;8901;52.088;5.084;2023-08-30T08:38:47;8.50;;;6.23;;
17566;SDS011;8901;52.088;5.084;2023-08-30T08:41:14;6.63;;;6.13;;
17566;SDS011;8901;52.088;5.084;2023-08-30T08:43:42;6.30;;;5.80;;
17566;SDS011;8901;52.088;5.084;2023-08-30T08:46:10;6.80;;;5.93;;
17566;SDS011;8901;52.088;5.084;2023-08-30T08:48:39;6.37;;;5.80;;
17566;SDS011;8901;52.088;5.084;2023-08-30T08:51:07;6.30;;;5.70;;
17566;SDS011;8901;52.088;5.084;2023-08-30T08:53:34;7.27;;;6.67;;
17566;SDS011;8901;52.088;5.084;2023-08-30T08:56:04;6.33;;;5.83;;
17566;SDS011;8901;52.088;5.084;2023-08-30T08:58:31;6.83;;;6.23;;
17566;SDS011;8901;52.088;5.084;2023-08-30T09:00:58;6.77;;;6.10;;
17566;SDS011;8901;52.088;5.084;2023-08-30T09:03:26;7.20;;;6.47;;
17566;SDS011;8901;52.088;5.084;2023-08-30T09:05:53;6.57;;;5.97;;
17566;SDS011;8901;52.088;5.084;2023-08-30T09:08:20;6.77;;;6.27;;
17566;SDS011;8901;52.088;5.084;2023-08-30T09:10:48;6.70;;;6.10;;
17566;SDS011;8901;52.088;5.084;2023-08-30T09:13:17;7.00;;;6.40;;
17566;SDS011;8901;52.088;5.084;2023-08-30T09:15:46;7.60;;;6.80;;
17566;SDS011;8901;52.088;5.084;2023-08-30T09:18:14;6.90;;;6.20;;
17566;SDS011;8901;52.088;5.084;2023-08-30T09:20:42;6.63;;;6.03;;
17566;SDS011;8901;52.088;5.084;2023-08-30T09:23:16;6.97;;;6.47;;
17566;SDS011;8901;52.088;5.084;2023-08-30T09:25:44;7.10;;;6.50;;
17566;SDS011;8901;52.088;5.084;2023-08-30T09:28:11;6.37;;;5.87;;
17566;SDS011;8901;52.088;5.084;2023-08-30T09:30:40;6.37;;;5.73;;
17566;SDS011;8901;52.088;5.084;2023-08-30T09:33:07;8.00;;;7.17;;
17566;SDS011;8901;52.088;5.084;2023-08-30T09:35:39;7.27;;;6.57;;
17566;SDS011;8901;52.088;5.084;2023-08-30T09:38:06;7.80;;;7.10;;
17566;SDS011;8901;52.088;5.084;2023-08-30T09:40:34;7.83;;;7.20;;
17566;SDS011;8901;52.088;5.084;2023-08-30T09:43:01;8.00;;;7.23;;
17566;SDS011;8901;52.088;5.084;2023-08-30T09:45:29;8.83;;;8.03;;
17566;SDS011;8901;52.088;5.084;2023-08-30T09:47:58;7.37;;;6.73;;
17566;SDS011;8901;52.088;5.084;2023-08-30T09:50:28;7.70;;;7.00;;
17566;SDS011;8901;52.088;5.084;2023-08-30T09:52:55;7.63;;;7.03;;
17566;SDS011;8901;52.088;5.084;2023-08-30T09:55:23;6.87;;;6.37;;
17566;SDS011;8901;52.088;5.084;2023-08-30T09:57:51;7.70;;;7.10;;
17566;SDS011;8901;52.088;5.084;2023-08-30T10:00:21;7.10;;;6.50;;
17566;SDS011;8901;52.088;5.084;2023-08-30T10:02:48;7.40;;;6.80;;
17566;SDS011;8901;52.088;5.084;2023-08-30T10:05:17;7.83;;;7.03;;
17566;SDS011;8901;52.088;5.084;2023-08-30T10:07:45;8.13;;;7.43;;
17566;SDS011;8901;52.088;5.084;2023-08-30T10:10:14;8.77;;;7.87;;
17566;SDS011;8901;52.088;5.084;2023-08-30T10:12:42;6.93;;;6.33;;
17566;SDS011;8901;52.088;5.084;2023-08-30T10:15:13;5.80;;;5.30;;
17566;SDS011;8901;52.088;5.084;2023-08-30T10:17:41;5.83;;;4.77;;
17566;SDS011;8901;52.088;5.084;2023-08-30T10:20:11;5.73;;;5.00;;
17566;SDS011;8901;52.088;5.084;2023-08-30T10:22:40;5.50;;;5.00;;
17566;SDS011;8901;52.088;5.084;2023-08-30T10:25:08;5.20;;;4.80;;
17566;SDS011;8901;52.088;5.084;2023-08-30T10:27:37;5.73;;;5.13;;
17566;SDS011;8901;52.088;5.084;2023-08-30T10:30:05;6.20;;;5.60;;
17566;SDS011;8901;52.088;5.084;2023-08-30T10:32:38;7.40;;;5.30;;
17566;SDS011;8901;52.088;5.084;2023-08-30T10:35:05;5.93;;;5.40;;
17566;SDS011;8901;52.088;5.084;2023-08-30T10:37:32;7.63;;;5.20;;
17566;SDS011;8901;52.088;5.084;2023-08-30T10:40:02;6.47;;;4.97;;
17566;SDS011;8901;52.088;5.084;2023-08-30T10:42:29;8.70;;;4.50;;
17566;SDS011;8901;52.088;5.084;2023-08-30T10:44:58;5.60;;;4.70;;
17566;SDS011;8901;52.088;5.084;2023-08-30T10:47:26;9.30;;;5.37;;
17566;SDS011;8901;52.088;5.084;2023-08-30T10:49:54;6.53;;;4.73;;
17566;SDS011;8901;52.088;5.084;2023-08-30T10:52:22;7.67;;;5.67;;
17566;SDS011;8901;52.088;5.084;2023-08-30T10:54:49;6.57;;;5.00;;
17566;SDS011;8901;52.088;5.084;2023-08-30T10:57:19;7.27;;;5.00;;
17566;SDS011;8901;52.088;5.084;2023-08-30T11:00:03;6.37;;;4.97;;
17566;SDS011;8901;52.088;5.084;2023-08-30T11:02:32;6.10;;;5.40;;
17566;SDS011;8901;52.088;5.084;2023-08-30T11:04:59;7.93;;;6.10;;
17566;SDS011;8901;52.088;5.084;2023-08-30T11:07:28;7.13;;;5.93;;
17566;SDS011;8901;52.088;5.084;2023-08-30T11:09:55;7.00;;;5.50;;
17566;SDS011;8901;52.088;5.084;2023-08-30T11:12:24;8.33;;;5.10;;
17566;SDS011;8901;52.088;5.084;2023-08-30T11:14:52;5.70;;;5.17;;
17566;SDS011;8901;52.088;5.084;2023-08-30T11:17:19;5.97;;;5.17;;
17566;SDS011;8901;52.088;5.084;2023-08-30T11:19:49;8.87;;;5.30;;
17566;SDS011;8901;52.088;5.084;2023-08-30T11:22:16;7.67;;;5.17;;
17566;SDS011;8901;52.088;5.084;2023-08-30T11:24:45;8.07;;;5.83;;
17566;SDS011;8901;52.088;5.084;2023-08-30T11:27:15;7.37;;;6.23;;
17566;SDS011;8901;52.088;5.084;2023-08-30T11:29:44;8.50;;;6.53;;
17566;SDS011;8901;52.088;5.084;2023-08-30T11:32:12;8.03;;;7.17;;
17566;SDS011;8901;52.088;5.084;2023-08-30T11:34:39;9.33;;;7.80;;
17566;SDS011;8901;52.088;5.084;2023-08-30T11:37:07;7.70;;;6.97;;
17566;SDS011;8901;52.088;5.084;2023-08-30T11:39:34;8.37;;;6.57;;
17566;SDS011;8901;52.088;5.084;2023-08-30T11:42:03;10.70;;;7.00;;
17566;SDS011;8901;52.088;5.084;2023-08-30T11:44:31;8.50;;;7.70;;
17566;SDS011;8901;52.088;5.084;2023-08-30T11:47:00;9.50;;;7.70;;
17566;SDS011;8901;52.088;5.084;2023-08-30T11:49:28;8.47;;;7.60;;
17566;SDS011;8901;52.088;5.084;2023-08-30T11:51:55;11.03;;;8.23;;
17566;SDS011;8901;52.088;5.084;2023-08-30T11:54:23;9.67;;;8.77;;
17566;SDS011;8901;52.088;5.084;2023-08-30T11:56:51;10.80;;;9.27;;
17566;SDS011;8901;52.088;5.084;2023-08-30T11:59:19;10.63;;;9.60;;
17566;SDS011;8901;52.088;5.084;2023-08-30T12:01:47;11.80;;;10.80;;
17566;SDS011;8901;52.088;5.084;2023-08-30T12:04:16;10.40;;;8.93;;
17566;SDS011;8901;52.088;5.084;2023-08-30T12:06:50;11.97;;;8.60;;
17566;SDS011;8901;52.088;5.084;2023-08-30T12:09:18;9.93;;;9.03;;
17566;SDS011;8901;52.088;5.084;2023-08-30T12:11:47;11.23;;;10.30;;
17566;SDS011;8901;52.088;5.084;2023-08-30T12:14:14;13.20;;;12.00;;
17566;SDS011;8901;52.088;5.084;2023-08-30T12:16:42;10.87;;;9.70;;
17566;SDS011;8901;52.088;5.084;2023-08-30T12:19:10;12.63;;;10.73;;
17566;SDS011;8901;52.088;5.084;2023-08-30T12:21:42;10.10;;;8.60;;
17566;SDS011;8901;52.088;5.084;2023-08-30T12:24:10;11.50;;;10.23;;
17566;SDS011;8901;52.088;5.084;2023-08-30T12:26:37;12.60;;;11.30;;
17566;SDS011;8901;52.088;5.084;2023-08-30T12:29:04;10.53;;;9.63;;
17566;SDS011;8901;52.088;5.084;2023-08-30T12:31:32;10.83;;;9.90;;
17566;SDS011;8901;52.088;5.084;2023-08-30T12:34:00;12.03;;;10.97;;
17566;SDS011;8901;52.088;5.084;2023-08-30T12:36:27;11.63;;;10.63;;
17566;SDS011;8901;52.088;5.084;2023-08-30T12:38:56;10.90;;;10.00;;
17566;SDS011;8901;52.088;5.084;2023-08-30T12:41:23;9.97;;;8.90;;
17566;SDS011;8901;52.088;5.084;2023-08-30T12:43:50;11.10;;;10.00;;
17566;SDS011;8901;52.088;5.084;2023-08-30T12:46:17;9.97;;;9.03;;
17566;SDS011;8901;52.088;5.084;2023-08-30T12:48:45;10.63;;;8.10;;
17566;SDS011;8901;52.088;5.084;2023-08-30T12:51:12;9.40;;;6.87;;
17566;SDS011;8901;52.088;5.084;2023-08-30T12:53:40;11.13;;;7.30;;
17566;SDS011;8901;52.088;5.084;2023-08-30T12:56:09;8.90;;;6.43;;
17566;SDS011;8901;52.088;5.084;2023-08-30T12:58:36;9.53;;;7.03;;
17566;SDS011;8901;52.088;5.084;2023-08-30T13:01:03;6.20;;;5.70;;
17566;SDS011;8901;52.088;5.084;2023-08-30T13:03:30;6.13;;;5.47;;
17566;SDS011;8901;52.088;5.084;2023-08-30T13:05:58;7.63;;;5.67;;
17566;SDS011;8901;52.088;5.084;2023-08-30T13:08:25;8.03;;;6.00;;
17566;SDS011;8901;52.088;5.084;2023-08-30T13:10:52;8.70;;;5.60;;
17566;SDS011;8901;52.088;5.084;2023-08-30T13:13:21;6.00;;;5.47;;
17566;SDS011;8901;52.088;5.084;2023-08-30T13:15:48;7.60;;;5.50;;
17566;SDS011;8901;52.088;5.084;2023-08-30T13:18:15;10.77;;;5.17;;
17566;SDS011;8901;52.088;5.084;2023-08-30T13:20:43;12.57;;;6.00;;
17566;SDS011;8901;52.088;5.084;2023-08-30T13:23:10;6.13;;;4.90;;
17566;SDS011;8901;52.088;5.084;2023-08-30T13:25:40;6.03;;;5.40;;
17566;SDS011;8901;52.088;5.084;2023-08-30T13:28:08;6.57;;;5.87;;
17566;SDS011;8901;52.088;5.084;2023-08-30T13:30:36;5.77;;;5.30;;
17566;SDS011;8901;52.088;5.084;2023-08-30T13:33:10;6.43;;;5.20;;
17566;SDS011;8901;52.088;5.084;2023-08-30T13:35:38;4.97;;;3.87;;
17566;SDS011;8901;52.088;5.084;2023-08-30T13:38:05;7.00;;;3.47;;
17566;SDS011;8901;52.088;5.084;2023-08-30T13:40:33;7.93;;;3.60;;
17566;SDS011;8901;52.088;5.084;2023-08-30T13:43:00;8.77;;;3.37;;
17566;SDS011;8901;52.088;5.084;2023-08-30T13:45:28;11.23;;;3.90;;
17566;SDS011;8901;52.088;5.084;2023-08-30T13:47:56;6.97;;;3.70;;
17566;SDS011;8901;52.088;5.084;2023-08-30T13:50:24;7.60;;;3.20;;
17566;SDS011;8901;52.088;5.084;2023-08-30T13:52:55;7.03;;;3.63;;
17566;SDS011;8901;52.088;5.084;2023-08-30T13:55:22;3.90;;;3.00;;
17566;SDS011;8901;52.088;5.084;2023-08-30T13:57:49;8.63;;;3.27;;
17566;SDS011;8901;52.088;5.084;2023-08-30T14:00:18;4.73;;;3.67;;
17566;SDS011;8901;52.088;5.084;2023-08-30T14:02:45;5.13;;;3.30;;
17566;SDS011;8901;52.088;5.084;2023-08-30T14:05:14;6.97;;;3.50;;
17566;SDS011;8901;52.088;5.084;2023-08-30T14:07:41;6.70;;;3.73;;
17566;SDS011;8901;52.088;5.084;2023-08-30T14:10:09;5.17;;;4.07;;
17566;SDS011;8901;52.088;5.084;2023-08-30T14:12:41;7.40;;;3.70;;
17566;SDS011;8901;52.088;5.084;2023-08-30T14:15:09;5.97;;;3.90;;
17566;SDS011;8901;52.088;5.084;2023-08-30T14:17:36;7.17;;;4.30;;
17566;SDS011;8901;52.088;5.084;2023-08-30T14:20:04;5.20;;;3.80;;
17566;SDS011;8901;52.088;5.084;2023-08-30T14:22:33;4.90;;;4.00;;
17566;SDS011;8901;52.088;5.084;2023-08-30T14:25:01;6.77;;;4.57;;
17566;SDS011;8901;52.088;5.084;2023-08-30T14:27:29;5.03;;;3.63;;
17566;SDS011;8901;52.088;5.084;2023-08-30T14:29:57;7.20;;;4.13;;
17566;SDS011;8901;52.088;5.084;2023-08-30T14:32:25;4.60;;;3.57;;
17566;SDS011;8901;52.088;5.084;2023-08-30T14:34:52;6.60;;;3.23;;
17566;SDS011;8901;52.088;5.084;2023-08-30T14:37:19;6.73;;;3.40;;
17566;SDS011;8901;52.088;5.084;2023-08-30T14:39:48;4.30;;;3.10;;
17566;SDS011;8901;52.088;5.084;2023-08-30T14:42:15;4.43;;;3.03;;
17566;SDS011;8901;52.088;5.084;2023-08-30T14:44:43;3.33;;;2.80;;
17566;SDS011;8901;52.088;5.084;2023-08-30T14:47:10;3.30;;;3.00;;
17566;SDS011;8901;52.088;5.084;2023-08-30T14:49:37;3.30;;;3.00;;
17566;SDS011;8901;52.088;5.084;2023-08-30T14:52:05;4.37;;;3.17;;
17566;SDS011;8901;52.088;5.084;2023-08-30T14:54:32;5.37;;;3.60;;